Terminal Aerodrome Forecast
Issued by NWS Charleston, WV

Current Version | Previous Version | Graphics & Text | Print | Product List | Glossary On
Versions: 1 2 3 4 5 6 7 8 9 10 11 12 13 14 15 16 17 18 19 20 21 22 23 24 25 26
501
FTUS41 KRLX 290538
TAFPKB
TAF
KPKB 290538Z 2906/3006 36007KT P6SM OVC025
     FM290700 36008KT 6SM BR OVC015
     FM291400 02009G16KT P6SM BKN035
     FM291900 01008KT P6SM BKN040
     FM292000 01007KT P6SM SCT040
     FM292300 01004KT P6SM FEW250=

USA.gov is the U.S. government's official web portal to all federal, state and local government web resources and services.